Time;durP1;ratioP1;P1;durP2;ratioP2;P2;SDS_P1;SDS_P2;PMS_P1;PMS_P2;Temp;Humidity;BMP_temperature;BMP_pressure;BME280_temperature;BME280_humidity;BME280_pressure;Samples;Min_cycle;Max_cycle;Signal;HPM_P1;HPM_P2
2020/12/09 00:00:27;;;;;;;;;;;;;;;0.57;100.00;100304.88;5091130;28;20292;-68
2020/12/09 00:02:53;;;;;;;;;;;;;;;0.56;100.00;100304.97;5091284;28;19927;-69
2020/12/09 00:05:19;;;;;;;;;;;;;;;0.56;100.00;100296.94;5091222;28;19932;-68
2020/12/09 00:07:44;;;;;;;;;;;;;;;0.55;100.00;100292.53;5091114;28;19924;-68
2020/12/09 00:10:10;;;;;;;;;;;;;;;0.51;100.00;100305.19;5091078;28;20404;-69
2020/12/09 00:12:37;;;;;;;;;;;;;;;0.50;100.00;100296.28;5091212;28;19924;-70
2020/12/09 00:15:03;;;;;;;;;;;;;;;0.52;100.00;100296.22;5090994;28;19938;-68
2020/12/09 00:17:29;;;;;;;;;;;;;;;0.52;100.00;100300.69;5090863;28;20357;-68
2020/12/09 00:19:55;;;;;;;;;;;;;;;0.53;100.00;100303.28;5091074;28;19924;-68
2020/12/09 00:22:23;;;;;;;;;;;;;;;0.54;100.00;100307.72;5090884;28;19928;-68
2020/12/09 00:24:49;;;;;;;;;;;;;;;0.55;100.00;100312.13;5092084;28;19924;-68
2020/12/09 00:27:15;;;;;;;;;;;;;;;0.57;100.00;100314.72;5094116;28;20002;-68
2020/12/09 00:29:41;;;;;;;;;;;;;;;0.55;100.00;100312.13;5094392;28;19932;-69
2020/12/09 00:32:07;;;;;;;;;;;;;;;0.57;100.00;100314.72;5076434;28;20086;-70
2020/12/09 00:34:33;;;;;;;;;;;;;;;0.59;100.00;100311.03;5094401;28;19935;-68
2020/12/09 00:36:59;;;;;;;;;;;;;;;0.59;100.00;100312.81;5094273;28;19931;-68
2020/12/09 00:39:25;;;;;;;;;;;;;;;0.61;100.00;100327.84;5094371;28;19931;-68
2020/12/09 00:41:50;;;;;;;;;;;;;;;0.61;100.00;100327.84;5094384;28;19928;-68
2020/12/09 00:44:16;;;;;;;;;;;;;;;0.62;100.00;100323.38;5094094;28;19931;-68
2020/12/09 00:46:43;;;;;;;;;;;;;;;0.64;100.00;100326.84;5094163;28;20381;-68
2020/12/09 00:49:09;;;;;;;;;;;;;;;0.66;100.00;100335.66;5094178;28;19992;-68
2020/12/09 00:51:36;;;;;;;;;;;;;;;0.68;100.00;100333.78;5076072;28;19994;-68
2020/12/09 00:54:03;;;;;;;;;;;;;;;0.69;100.00;100330.16;5076098;28;20274;-68
2020/12/09 00:56:31;;;;;;;;;;;;;;;0.72;100.00;100323.81;5075926;28;19924;-68
2020/12/09 00:59:04;;;;;;;;;;;;;;;0.73;100.00;100314.88;5075880;28;19924;-68
2020/12/09 01:01:31;;;;;;;;;;;;;;;0.74;100.00;100322.81;5075600;28;19924;-68
2020/12/09 01:04:03;;;;;;;;;;;;;;;0.75;100.00;100324.56;5075786;28;19980;-67
2020/12/09 01:06:33;;;;;;;;;;;;;;;0.74;100.00;100324.63;5093609;28;19924;-68
2020/12/09 01:08:59;;;;;;;;;;;;;;;0.75;100.00;100319.22;5093768;28;19931;-68
2020/12/09 01:11:24;;;;;;;;;;;;;;;0.74;100.00;100317.47;5093606;28;19936;-68
2020/12/09 01:13:50;;;;;;;;;;;;;;;0.74;100.00;100320.13;5093705;28;19924;-67
2020/12/09 01:16:16;;;;;;;;;;;;;;;0.74;100.00;100317.47;5093496;28;20416;-67
2020/12/09 01:18:42;;;;;;;;;;;;;;;0.76;100.00;100323.63;5093674;28;19924;-67
2020/12/09 01:21:08;;;;;;;;;;;;;;;0.77;100.00;100319.13;5093464;28;19924;-68
2020/12/09 01:23:34;;;;;;;;;;;;;;;0.80;100.00;100322.53;5093526;28;20019;-67
2020/12/09 01:26:00;;;;;;;;;;;;;;;0.80;100.00;100322.53;5093207;28;19947;-67
2020/12/09 01:28:26;;;;;;;;;;;;;;;0.81;100.00;100318.03;5093318;28;19924;-67
2020/12/09 01:30:51;;;;;;;;;;;;;;;0.82;100.00;100331.31;5093312;28;19971;-67
2020/12/09 01:33:17;;;;;;;;;;;;;;;0.81;100.00;100321.56;5093169;28;20027;-67
2020/12/09 01:35:43;;;;;;;;;;;;;;;0.82;100.00;100314.44;5093241;28;19932;-68
2020/12/09 01:38:09;;;;;;;;;;;;;;;0.82;100.00;100320.63;5093014;28;19924;-68
2020/12/09 01:40:35;;;;;;;;;;;;;;;0.85;100.00;100314.28;5093123;28;19931;-67
2020/12/09 01:43:01;;;;;;;;;;;;;;;0.86;100.00;100320.50;5093092;28;19924;-67
2020/12/09 01:45:29;;;;;;;;;;;;;;;0.86;100.00;100320.50;5093104;28;20403;-67
2020/12/09 01:47:55;;;;;;;;;;;;;;;0.85;100.00;100322.31;5092864;28;19960;-67
2020/12/09 01:50:21;;;;;;;;;;;;;;;0.85;100.00;100322.31;5093152;28;20299;-67
2020/12/09 01:52:47;;;;;;;;;;;;;;;0.86;100.00;100315.16;5093100;28;19924;-68
2020/12/09 01:55:13;;;;;;;;;;;;;;;0.88;100.00;100316.81;5092842;28;20023;-67
2020/12/09 01:57:39;;;;;;;;;;;;;;;0.90;100.00;100306.91;5092671;28;19930;-67
2020/12/09 02:00:06;;;;;;;;;;;;;;;0.91;100.00;100307.78;5092761;28;19928;-67
2020/12/09 02:02:39;;;;;;;;;;;;;;;0.92;100.00;100301.50;5092739;28;19925;-67
2020/12/09 02:05:05;;;;;;;;;;;;;;;0.92;100.00;100309.50;5092561;28;19993;-68
2020/12/09 02:07:31;;;;;;;;;;;;;;;0.91;100.00;100311.34;5092385;28;20393;-67
2020/12/09 02:09:57;;;;;;;;;;;;;;;0.90;100.00;100316.75;5092543;28;19969;-67
2020/12/09 02:12:24;;;;;;;;;;;;;;;0.89;100.00;100309.66;5092466;28;19951;-67
2020/12/09 02:14:50;;;;;;;;;;;;;;;0.88;100.00;100315.94;5092573;28;19975;-67
2020/12/09 02:17:15;;;;;;;;;;;;;;;0.87;100.00;100307.06;5092264;28;19924;-67
2020/12/09 02:19:41;;;;;;;;;;;;;;;0.83;100.00;100298.31;5092422;28;19924;-67
2020/12/09 02:22:11;;;;;;;;;;;;;;;0.86;100.00;100302.66;5092436;28;19924;-67
2020/12/09 02:24:37;;;;;;;;;;;;;;;0.84;100.00;100304.53;5091810;28;20014;-67
2020/12/09 02:27:03;;;;;;;;;;;;;;;0.82;100.00;100317.97;5092240;28;19957;-67
2020/12/09 02:29:28;;;;;;;;;;;;;;;0.85;100.00;100316.09;5092315;28;19958;-67
2020/12/09 02:31:54;;;;;;;;;;;;;;;0.86;100.00;100315.16;5092184;28;19931;-67
2020/12/09 02:34:20;;;;;;;;;;;;;;;0.87;100.00;100322.22;5092302;28;19928;-67
2020/12/09 02:36:46;;;;;;;;;;;;;;;0.83;100.00;100317.03;5092015;28;19931;-67
2020/12/09 02:39:12;;;;;;;;;;;;;;;0.81;100.00;100320.72;5092146;28;19931;-67
2020/12/09 02:41:38;;;;;;;;;;;;;;;0.80;100.00;100316.31;5091966;28;20355;-67
2020/12/09 02:44:04;;;;;;;;;;;;;;;0.79;100.00;100309.25;5092019;28;19924;-67
2020/12/09 02:46:29;;;;;;;;;;;;;;;0.79;100.00;100312.78;5091847;28;20405;-67
2020/12/09 02:48:57;;;;;;;;;;;;;;;0.78;100.00;100316.38;5073399;28;19924;-67
2020/12/09 02:51:23;;;;;;;;;;;;;;;0.77;100.00;100316.47;5091989;28;20000;-67
2020/12/09 02:53:48;;;;;;;;;;;;;;;0.75;100.00;100302.28;5091895;28;19928;-67
2020/12/09 02:56:16;;;;;;;;;;;;;;;0.73;100.00;100310.38;5091573;28;19928;-67
2020/12/09 02:58:42;;;;;;;;;;;;;;;0.73;100.00;100309.53;5091872;28;19927;-67
2020/12/09 03:01:08;;;;;;;;;;;;;;;0.74;100.00;100296.09;5091548;28;19924;-67
2020/12/09 03:03:33;;;;;;;;;;;;;;;0.74;100.00;100308.59;5091821;28;19927;-67
2020/12/09 03:05:59;;;;;;;;;;;;;;;0.75;100.00;100300.50;5091608;28;19951;-68
2020/12/09 03:08:25;;;;;;;;;;;;;;;0.74;100.00;100309.44;5091712;28;19928;-67
2020/12/09 03:10:51;;;;;;;;;;;;;;;0.75;100.00;100305.84;5091679;28;19928;-67
2020/12/09 03:13:17;;;;;;;;;;;;;;;0.75;100.00;100297.84;5091622;28;19950;-67
2020/12/09 03:15:43;;;;;;;;;;;;;;;0.75;100.00;100307.63;5091685;28;20433;-67
2020/12/09 03:18:09;;;;;;;;;;;;;;;0.74;100.00;100303.25;5091708;28;19931;-67
2020/12/09 03:20:35;;;;;;;;;;;;;;;0.74;100.00;100312.13;5091649;28;19924;-67
2020/12/09 03:23:00;;;;;;;;;;;;;;;0.77;100.00;100306.63;5073452;28;19924;-67
2020/12/09 03:25:26;;;;;;;;;;;;;;;0.74;100.00;100305.91;5091557;28;20285;-67
2020/12/09 03:27:52;;;;;;;;;;;;;;;0.73;100.00;100304.19;5091433;28;19946;-67
2020/12/09 03:30:19;;;;;;;;;;;;;;;0.72;100.00;100297.97;5091478;28;19931;-67
2020/12/09 03:32:44;;;;;;;;;;;;;;;0.70;100.00;100302.53;5091511;28;20206;-67
2020/12/09 03:35:10;;;;;;;;;;;;;;;0.68;100.00;100298.19;5091498;28;19925;-67
2020/12/09 03:37:36;;;;;;;;;;;;;;;0.66;100.00;100293.78;5091309;28;20023;-68
2020/12/09 03:40:02;;;;;;;;;;;;;;;0.65;100.00;100288.50;5091401;28;19925;-67
2020/12/09 03:42:28;;;;;;;;;;;;;;;0.66;100.00;100292.91;5091558;28;19951;-67
2020/12/09 03:44:54;;;;;;;;;;;;;;;0.61;100.00;100285.09;5091238;28;19931;-68
2020/12/09 03:47:20;;;;;;;;;;;;;;;0.64;100.00;100284.09;5091301;28;19935;-67
2020/12/09 03:49:46;;;;;;;;;;;;;;;0.63;100.00;100283.25;5091385;28;20357;-68
2020/12/09 03:52:12;;;;;;;;;;;;;;;0.65;100.00;100299.19;5091265;28;20052;-67
2020/12/09 03:54:38;;;;;;;;;;;;;;;0.63;100.00;100293.06;5091272;28;20299;-67
2020/12/09 03:57:03;;;;;;;;;;;;;;;0.63;100.00;100298.41;5091074;28;19950;-68
2020/12/09 03:59:29;;;;;;;;;;;;;;;0.62;100.00;100315.38;5091754;28;19993;-68
2020/12/09 04:01:55;;;;;;;;;;;;;;;0.60;100.00;100312.78;5094920;28;19924;-67
2020/12/09 04:04:22;;;;;;;;;;;;;;;0.57;100.00;100317.38;5076731;28;19931;-68
2020/12/09 04:06:47;;;;;;;;;;;;;;;0.58;100.00;100319.13;5094731;28;19977;-68
2020/12/09 04:09:13;;;;;;;;;;;;;;;0.55;100.00;100317.47;5094912;28;19932;-67
2020/12/09 04:11:39;;;;;;;;;;;;;;;0.55;100.00;100316.56;5094924;28;19924;-67
2020/12/09 04:14:05;;;;;;;;;;;;;;;0.55;100.00;100317.47;5094741;28;19931;-67
2020/12/09 04:16:30;;;;;;;;;;;;;;;0.53;100.00;100321.13;5094745;28;19924;-67
2020/12/09 04:18:56;;;;;;;;;;;;;;;0.51;100.00;100321.22;5094979;28;19931;-67
2020/12/09 04:21:23;;;;;;;;;;;;;;;0.51;100.00;100323.88;5094955;28;19924;-68
2020/12/09 04:23:48;;;;;;;;;;;;;;;0.50;100.00;100324.81;5094569;28;20457;-67
2020/12/09 04:26:14;;;;;;;;;;;;;;;0.50;100.00;100317.66;5094241;28;19924;-67
2020/12/09 04:28:40;;;;;;;;;;;;;;;0.48;100.00;100316.00;5094626;28;19924;-67
2020/12/09 04:31:06;;;;;;;;;;;;;;;0.47;100.00;100319.63;5094323;28;20378;-67
2020/12/09 04:33:32;;;;;;;;;;;;;;;0.44;100.00;100312.63;5094235;28;19924;-67
2020/12/09 04:35:58;;;;;;;;;;;;;;;0.43;100.00;100305.53;5094282;28;19924;-67
2020/12/09 04:38:25;;;;;;;;;;;;;;;0.42;100.00;100294.94;5094230;28;19972;-67
2020/12/09 04:40:52;;;;;;;;;;;;;;;0.36;100.00;100296.09;5094553;28;19924;-67
2020/12/09 04:43:17;;;;;;;;;;;;;;;0.32;100.00;100315.81;5094260;28;19960;-67
2020/12/09 04:45:43;;;;;;;;;;;;;;;0.29;100.00;100326.66;5094205;28;19932;-67
2020/12/09 04:48:10;;;;;;;;;;;;;;;0.28;100.00;100324.91;5093948;28;19960;-67
2020/12/09 04:50:50;;;;;;;;;;;;;;;0.30;100.00;100328.41;5094242;28;19963;-68
2020/12/09 04:53:21;;;;;;;;;;;;;;;0.26;100.00;100330.31;5093915;28;20437;-67
2020/12/09 04:55:50;;;;;;;;;;;;;;;0.24;100.00;100326.88;5094050;28;20018;-67
2020/12/09 04:58:16;;;;;;;;;;;;;;;0.27;100.00;100336.56;5093658;28;20365;-67
2020/12/09 05:00:45;;;;;;;;;;;;;;;0.26;100.00;100340.16;5093819;28;19928;-67
2020/12/09 05:03:15;;;;;;;;;;;;;;;0.25;100.00;100343.75;5093602;28;19997;-68
2020/12/09 05:05:41;;;;;;;;;;;;;;;0.26;100.00;100348.16;5093657;28;19931;-67
2020/12/09 05:08:12;;;;;;;;;;;;;;;0.26;100.00;100343.66;5093423;28;19924;-67
2020/12/09 05:10:45;;;;;;;;;;;;;;;0.22;100.00;100346.56;5093409;28;20014;-67
2020/12/09 05:13:18;;;;;;;;;;;;;;;0.23;100.00;100342.94;5093595;28;20319;-68
2020/12/09 05:15:44;;;;;;;;;;;;;;;0.24;100.00;100348.22;5093688;28;19971;-68
2020/12/09 05:18:10;;;;;;;;;;;;;;;0.21;100.00;100358.16;5093388;28;19924;-68
2020/12/09 05:20:38;;;;;;;;;;;;;;;0.18;100.00;100345.81;5093849;28;19924;-68
2020/12/09 05:23:04;;;;;;;;;;;;;;;0.16;100.00;100348.56;5093535;28;19935;-68
2020/12/09 05:25:31;;;;;;;;;;;;;;;0.15;100.00;100352.16;5093466;28;20368;-68
2020/12/09 05:27:57;;;;;;;;;;;;;;;0.19;100.00;100344.00;5093197;28;20000;-68
2020/12/09 05:30:41;;;;;;;;;;;;;;;0.14;100.00;100347.75;5093253;28;19932;-68
2020/12/09 05:33:07;;;;;;;;;;;;;;;0.15;100.00;100352.16;5093101;28;20423;-68
2020/12/09 05:35:33;;;;;;;;;;;;;;;0.15;100.00;100353.97;5093438;28;19967;-68
2020/12/09 05:38:10;;;;;;;;;;;;;;;0.16;100.00;100356.56;5092984;28;19924;-68
2020/12/09 05:40:36;;;;;;;;;;;;;;;0.14;100.00;100353.09;5093132;28;20397;-68
2020/12/09 05:43:02;;;;;;;;;;;;;;;0.13;100.00;100359.38;5080373;28;20031;-68
2020/12/09 05:45:27;;;;;;;;;;;;;;;0.11;100.00;100355.91;5072682;28;19932;-69
2020/12/09 05:48:10;;;;;;;;;;;;;;;0.10;100.00;100356.81;5080496;28;19961;-68
2020/12/09 05:50:43;;;;;;;;;;;;;;;0.08;100.00;100373.84;5080153;28;19963;-68
2020/12/09 05:53:15;;;;;;;;;;;;;;;0.09;100.00;100359.56;5075808;28;20435;-68
2020/12/09 05:55:41;;;;;;;;;;;;;;;0.11;100.00;100355.91;5083131;28;19924;-68
2020/12/09 05:58:17;;;;;;;;;;;;;;;0.11;100.00;100361.25;5088955;28;19924;-68
2020/12/09 06:00:45;;;;;;;;;;;;;;;0.13;100.00;100366.50;5087745;28;20040;-68
2020/12/09 06:03:16;;;;;;;;;;;;;;;0.14;100.00;100360.25;5073497;28;20015;-68
2020/12/09 06:05:42;;;;;;;;;;;;;;;0.11;100.00;100361.25;5092556;28;20403;-69
2020/12/09 06:08:08;;;;;;;;;;;;;;;0.14;100.00;100360.25;5092133;28;19924;-68
2020/12/09 06:10:34;;;;;;;;;;;;;;;0.07;100.00;100372.97;5092414;28;19932;-68
2020/12/09 06:13:01;;;;;;;;;;;;;;;0.04;100.00;100370.47;5091667;28;19962;-68
2020/12/09 06:15:27;;;;;;;;;;;;;;;0.03;100.00;100375.84;5092491;28;19930;-68
2020/12/09 06:18:03;;;;;;;;;;;;;;;0.04;100.00;100377.59;5086162;28;19929;-68
2020/12/09 06:20:33;;;;;;;;;;;;;;;0.05;100.00;100365.97;5090547;28;19977;-68
2020/12/09 06:22:59;;;;;;;;;;;;;;;0.07;100.00;100370.31;5085363;28;20574;-68
2020/12/09 06:25:26;;;;;;;;;;;;;;;0.06;100.00;100375.72;5070559;28;19967;-67
2020/12/09 06:27:52;;;;;;;;;;;;;;;0.06;100.00;100373.91;5070237;28;20027;-67
2020/12/09 06:30:25;;;;;;;;;;;;;;;0.09;100.00;100357.75;5092094;28;19924;-67
2020/12/09 06:32:51;;;;;;;;;;;;;;;0.07;100.00;100353.44;5083869;28;20437;-68
2020/12/09 06:35:17;;;;;;;;;;;;;;;0.07;100.00;100359.63;5085308;28;19931;-68
2020/12/09 06:38:09;;;;;;;;;;;;;;;0.05;100.00;100361.50;5089956;28;19932;-68
2020/12/09 06:40:35;;;;;;;;;;;;;;;0.07;100.00;100359.63;5085772;28;19924;-66
2020/12/09 06:43:06;;;;;;;;;;;;;;;0.06;100.00;100349.03;5074414;28;19956;-66
2020/12/09 06:45:40;;;;;;;;;;;;;;;0.04;100.00;100354.44;5086834;28;19928;-66
2020/12/09 06:48:08;;;;;;;;;;;;;;;-0.02;100.00;100355.56;5091590;28;19924;-66
2020/12/09 06:50:34;;;;;;;;;;;;;;;-0.01;100.00;100367.13;5090996;28;20023;-66
2020/12/09 06:53:11;;;;;;;;;;;;;;;0.02;100.00;100372.31;5073916;28;19939;-66
2020/12/09 06:55:37;;;;;;;;;;;;;;;0.04;100.00;100374.91;5090692;28;20026;-66
2020/12/09 06:58:20;;;;;;;;;;;;;;;0.06;100.00;100376.59;5071048;28;19932;-66
2020/12/09 07:00:57;;;;;;;;;;;;;;;0.05;100.00;100380.19;5070652;28;19971;-66
2020/12/09 07:03:26;;;;;;;;;;;;;;;0.07;100.00;100382.81;5091515;28;19966;-66
2020/12/09 07:05:52;;;;;;;;;;;;;;;0.09;100.00;100378.25;5089969;28;19935;-66
2020/12/09 07:08:18;;;;;;;;;;;;;;;0.05;100.00;100382.84;5070315;28;20023;-66
2020/12/09 07:10:44;;;;;;;;;;;;;;;0.06;100.00;100378.41;5070836;28;20333;-66
2020/12/09 07:13:11;;;;;;;;;;;;;;;0.06;100.00;100386.41;5086204;28;19979;-67
2020/12/09 07:15:37;;;;;;;;;;;;;;;0.07;100.00;100386.34;5076240;28;19974;-67
2020/12/09 07:18:04;;;;;;;;;;;;;;;0.04;100.00;100391.81;5070872;28;20014;-66
2020/12/09 07:20:29;;;;;;;;;;;;;;;0.04;100.00;100393.59;5089071;28;20214;-66
2020/12/09 07:22:55;;;;;;;;;;;;;;;0.04;100.00;100393.59;5091403;28;19962;-67
2020/12/09 07:25:22;;;;;;;;;;;;;;;0.04;100.00;100397.16;5087230;28;20030;-67
2020/12/09 07:27:48;;;;;;;;;;;;;;;0.02;100.00;100414.16;5078978;28;19931;-66
2020/12/09 07:30:17;;;;;;;;;;;;;;;0.01;100.00;100412.41;5073495;28;19927;-66
2020/12/09 07:32:43;;;;;;;;;;;;;;;0.03;100.00;100424.75;5078107;28;20309;-67
2020/12/09 07:35:10;;;;;;;;;;;;;;;0.02;100.00;100420.34;5080799;28;19971;-67
2020/12/09 07:37:38;;;;;;;;;;;;;;;0.03;100.00;100419.44;5079665;28;20385;-67
2020/12/09 07:40:15;;;;;;;;;;;;;;;0.02;100.00;100415.03;5079333;28;19982;-67
2020/12/09 07:42:42;;;;;;;;;;;;;;;0.00;100.00;100414.22;5092754;28;19946;-67
2020/12/09 07:45:18;;;;;;;;;;;;;;;0.02;100.00;100411.50;5082776;28;20039;-67
2020/12/09 07:47:44;;;;;;;;;;;;;;;0.05;100.00;100408.69;5091474;28;20375;-67
2020/12/09 07:50:10;;;;;;;;;;;;;;;0.08;100.00;100422.78;5084630;28;20461;-67
2020/12/09 07:52:37;;;;;;;;;;;;;;;0.08;100.00;100422.78;5094847;28;19924;-67
2020/12/09 07:55:06;;;;;;;;;;;;;;;0.09;100.00;100424.50;5091386;28;19967;-66
2020/12/09 07:57:32;;;;;;;;;;;;;;;0.14;100.00;100433.16;5094545;28;19928;-67
2020/12/09 07:59:59;;;;;;;;;;;;;;;0.12;100.00;100424.38;5093875;28;19942;-66
2020/12/09 08:02:26;;;;;;;;;;;;;;;0.08;100.00;100433.47;5094907;28;20204;-66
2020/12/09 08:05:06;;;;;;;;;;;;;;;0.13;100.00;100434.13;5084983;28;19924;-66
2020/12/09 08:07:32;;;;;;;;;;;;;;;0.16;100.00;100434.00;5093619;28;20042;-66
2020/12/09 08:10:05;;;;;;;;;;;;;;;0.18;100.00;100419.72;5094519;28;20313;-66
2020/12/09 08:12:31;;;;;;;;;;;;;;;0.12;100.00;100421.72;5093689;28;20446;-66
2020/12/09 08:14:58;;;;;;;;;;;;;;;0.11;100.00;100422.63;5068539;28;19967;-65
2020/12/09 08:17:27;;;;;;;;;;;;;;;0.15;100.00;100421.56;5090977;28;20065;-67
2020/12/09 08:20:00;;;;;;;;;;;;;;;0.18;100.00;100427.72;5081872;28;19928;-68
2020/12/09 08:22:26;;;;;;;;;;;;;;;0.21;100.00;100427.59;5085151;28;19924;-66
2020/12/09 08:25:02;;;;;;;;;;;;;;;0.22;100.00;100429.31;5090878;28;20225;-66
2020/12/09 08:27:28;;;;;;;;;;;;;;;0.20;100.00;100433.84;5073964;28;19971;-67
2020/12/09 08:29:54;;;;;;;;;;;;;;;0.20;100.00;100423.16;5082112;28;20363;-66
2020/12/09 08:32:21;;;;;;;;;;;;;;;0.18;100.00;100420.56;5085604;28;19939;-67
2020/12/09 08:35:07;;;;;;;;;;;;;;;0.19;100.00;100424.09;5094261;28;19932;-67
2020/12/09 08:37:42;;;;;;;;;;;;;;;0.20;100.00;100429.41;5093606;28;19959;-68
2020/12/09 08:40:08;;;;;;;;;;;;;;;0.24;100.00;100427.44;5093940;28;20454;-68
2020/12/09 08:42:33;;;;;;;;;;;;;;;0.25;100.00;100438.06;5074142;28;19929;-67
2020/12/09 08:45:18;;;;;;;;;;;;;;;0.24;100.00;100438.13;5073722;28;19932;-66
2020/12/09 08:47:44;;;;;;;;;;;;;;;0.29;100.00;100430.78;5090293;28;19928;-67
2020/12/09 08:50:10;;;;;;;;;;;;;;;0.31;100.00;100436.94;5093915;28;19959;-65
2020/12/09 08:52:36;;;;;;;;;;;;;;;0.29;100.00;100434.31;5085110;28;19924;-65
2020/12/09 08:55:03;;;;;;;;;;;;;;;0.31;100.00;100436.94;5093035;28;19935;-65
2020/12/09 08:57:29;;;;;;;;;;;;;;;0.28;100.00;100443.28;5091743;28;19924;-66
2020/12/09 08:59:54;;;;;;;;;;;;;;;0.41;100.00;100440.06;5082248;28;20009;-65
2020/12/09 09:02:20;;;;;;;;;;;;;;;0.44;100.00;100435.47;5090965;28;20289;-65
2020/12/09 09:04:47;;;;;;;;;;;;;;;0.52;100.00;100435.13;5077914;28;19924;-65
2020/12/09 09:07:13;;;;;;;;;;;;;;;0.62;100.00;100432.91;5090859;28;19924;-66
2020/12/09 09:09:38;;;;;;;;;;;;;;;0.59;100.00;100431.25;5074978;28;19924;-65
2020/12/09 09:12:04;;;;;;;;;;;;;;;0.63;100.00;100438.19;5086926;28;19924;-65
2020/12/09 09:14:31;;;;;;;;;;;;;;;0.65;100.00;100438.13;5091888;28;19931;-64
2020/12/09 09:16:57;;;;;;;;;;;;;;;0.64;100.00;100439.03;5093165;28;19992;-67
2020/12/09 09:19:23;;;;;;;;;;;;;;;0.72;100.00;100441.38;5088509;28;19933;-64
2020/12/09 09:21:49;;;;;;;;;;;;;;;0.73;100.00;100435.97;5093237;28;19939;-66
2020/12/09 09:24:15;;;;;;;;;;;;;;;0.68;100.00;100445.97;5080723;28;19981;-64
2020/12/09 09:26:41;;;;;;;;;;;;;;;0.68;100.00;100450.47;5072887;28;19936;-64
2020/12/09 09:29:07;;;;;;;;;;;;;;;0.59;100.00;100449.06;5085360;28;19946;-65
2020/12/09 09:31:33;;;;;;;;;;;;;;;0.58;100.00;100452.69;5088666;28;19924;-64
2020/12/09 09:33:58;;;;;;;;;;;;;;;0.57;100.00;100450.94;5077305;28;19967;-64
2020/12/09 09:36:28;;;;;;;;;;;;;;;0.61;100.00;100455.22;5092767;28;19931;-66
2020/12/09 09:38:54;;;;;;;;;;;;;;;0.63;100.00;100464.06;5090876;28;19935;-66
2020/12/09 09:41:20;;;;;;;;;;;;;;;0.57;100.00;100450.94;5093104;28;20035;-66
2020/12/09 09:43:46;;;;;;;;;;;;;;;0.58;100.00;100453.56;5078650;28;19928;-66
2020/12/09 09:46:12;;;;;;;;;;;;;;;0.59;100.00;100457.97;5073641;28;19928;-65
2020/12/09 09:48:38;;;;;;;;;;;;;;;0.60;100.00;100453.47;5072767;28;19934;-65
2020/12/09 09:51:04;;;;;;;;;;;;;;;0.64;100.00;100457.75;5073644;28;19928;-64
2020/12/09 09:53:31;;;;;;;;;;;;;;;0.73;100.00;100460.00;5073762;28;19963;-64
2020/12/09 09:55:57;;;;;;;;;;;;;;;0.83;100.00;100468.50;5093004;28;20389;-65
2020/12/09 09:58:23;;;;;;;;;;;;;;;0.87;100.00;100463.88;5092703;28;19971;-65
2020/12/09 10:00:49;;;;;;;;;;;;;;;0.81;100.00;100465.03;5072795;28;19924;-67
2020/12/09 10:03:14;;;;;;;;;;;;;;;0.87;100.00;100469.22;5090158;28;20385;-66
2020/12/09 10:05:40;;;;;;;;;;;;;;;0.91;100.00;100468.13;5092740;28;19977;-66
2020/12/09 10:08:07;;;;;;;;;;;;;;;0.82;100.00;100475.63;5082214;28;19989;-65
2020/12/09 10:10:33;;;;;;;;;;;;;;;0.85;100.00;100468.44;5073611;28;19924;-65
2020/12/09 10:12:59;;;;;;;;;;;;;;;0.84;100.00;100462.19;5087293;28;19955;-66
2020/12/09 10:15:25;;;;;;;;;;;;;;;0.86;100.00;100465.69;5079199;28;20394;-66
2020/12/09 10:17:51;;;;;;;;;;;;;;;0.92;100.00;100473.44;5071884;28;19931;-66
2020/12/09 10:20:17;;;;;;;;;;;;;;;0.91;100.00;100462.78;5091380;28;19928;-66
2020/12/09 10:22:42;;;;;;;;;;;;;;;0.88;100.00;100468.28;5092734;28;19934;-66
2020/12/09 10:25:08;;;;;;;;;;;;;;;0.86;100.00;100473.72;5091337;28;19928;-66
2020/12/09 10:27:34;;;;;;;;;;;;;;;0.94;100.00;100478.72;5091621;28;19964;-66
2020/12/09 10:30:01;;;;;;;;;;;;;;;0.89;100.00;100470.88;5091304;28;20329;-66
2020/12/09 10:32:27;;;;;;;;;;;;;;;0.93;100.00;100459.13;5091637;28;20296;-66
2020/12/09 10:34:52;;;;;;;;;;;;;;;0.97;100.00;100459.84;5091565;28;19924;-66
2020/12/09 10:37:18;;;;;;;;;;;;;;;0.94;100.00;100462.69;5091720;28;19932;-68
2020/12/09 10:39:45;;;;;;;;;;;;;;;0.96;100.00;100466.13;5079290;28;19935;-67
2020/12/09 10:42:11;;;;;;;;;;;;;;;0.95;100.00;100453.69;5071673;28;19925;-67
2020/12/09 10:44:37;;;;;;;;;;;;;;;0.92;100.00;100460.06;5077267;28;20019;-67
2020/12/09 10:47:05;;;;;;;;;;;;;;;0.90;100.00;100461.09;5071368;28;19924;-68
2020/12/09 10:49:32;;;;;;;;;;;;;;;0.95;100.00;100465.28;5091939;28;19966;-68
2020/12/09 10:51:59;;;;;;;;;;;;;;;0.93;100.00;100466.28;5091708;28;20294;-68
2020/12/09 10:54:24;;;;;;;;;;;;;;;0.98;100.00;100458.91;5074537;28;19932;-67
2020/12/09 10:56:50;;;;;;;;;;;;;;;1.09;100.00;100458.44;5090859;28;19977;-66
2020/12/09 10:59:16;;;;;;;;;;;;;;;1.17;100.00;100454.44;5091221;28;19928;-67
2020/12/09 11:01:42;;;;;;;;;;;;;;;1.13;100.00;100458.19;5090081;28;20358;-67
2020/12/09 11:04:09;;;;;;;;;;;;;;;1.09;100.00;100447.72;5088161;28;19928;-67
2020/12/09 11:06:37;;;;;;;;;;;;;;;1.10;100.00;100446.81;5090710;28;19975;-66
2020/12/09 11:09:04;;;;;;;;;;;;;;;1.14;100.00;100451.91;5091201;28;19928;-66
2020/12/09 11:11:30;;;;;;;;;;;;;;;1.20;100.00;100448.09;5089571;28;20023;-65
2020/12/09 11:13:56;;;;;;;;;;;;;;;1.25;100.00;100450.56;5071342;28;19970;-66
2020/12/09 11:16:22;;;;;;;;;;;;;;;1.30;100.00;100453.91;5080771;28;19928;-66
2020/12/09 11:18:48;;;;;;;;;;;;;;;1.37;100.00;100452.66;5091454;28;19924;-66
2020/12/09 11:21:17;;;;;;;;;;;;;;;1.38;100.00;100456.19;5091232;28;20284;-66
2020/12/09 11:23:42;;;;;;;;;;;;;;;1.30;100.00;100448.53;5086757;28;19935;-66
2020/12/09 11:26:08;;;;;;;;;;;;;;;1.27;100.00;100454.00;5072051;28;19924;-66
2020/12/09 11:28:34;;;;;;;;;;;;;;;1.16;100.00;100455.41;5090298;28;19935;-67
2020/12/09 11:31:00;;;;;;;;;;;;;;;1.17;100.00;100451.78;5090385;28;20023;-67
2020/12/09 11:33:26;;;;;;;;;;;;;;;1.17;100.00;100454.44;5089513;28;20352;-67
2020/12/09 11:35:52;;;;;;;;;;;;;;;1.20;100.00;100452.59;5088673;28;19924;-66
2020/12/09 11:38:18;;;;;;;;;;;;;;;1.24;100.00;100446.16;5078819;28;20534;-66
2020/12/09 11:40:44;;;;;;;;;;;;;;;1.24;100.00;100446.16;5084356;28;19935;-66
2020/12/09 11:43:10;;;;;;;;;;;;;;;1.31;100.00;100440.44;5090287;28;19924;-67
2020/12/09 11:45:37;;;;;;;;;;;;;;;1.31;100.00;100437.78;5089874;28;19932;-67
2020/12/09 11:48:03;;;;;;;;;;;;;;;1.30;100.00;100438.69;5073525;28;19925;-67
2020/12/09 11:50:29;;;;;;;;;;;;;;;1.23;100.00;100431.91;5079608;28;20019;-66
2020/12/09 11:52:55;;;;;;;;;;;;;;;1.21;100.00;100438.28;5076195;28;19924;-67
2020/12/09 11:55:21;;;;;;;;;;;;;;;1.25;100.00;100429.16;5089278;28;19982;-67
2020/12/09 11:57:47;;;;;;;;;;;;;;;1.27;100.00;100429.94;5085231;28;19978;-67
2020/12/09 12:00:13;;;;;;;;;;;;;;;1.32;100.00;100425.25;5074383;28;19928;-67
2020/12/09 12:02:39;;;;;;;;;;;;;;;1.26;100.00;100429.09;5086462;28;19924;-67
2020/12/09 12:05:05;;;;;;;;;;;;;;;1.26;100.00;100429.09;5070905;28;19928;-66
2020/12/09 12:07:30;;;;;;;;;;;;;;;1.25;100.00;100434.53;5088240;28;20027;-66
2020/12/09 12:09:56;;;;;;;;;;;;;;;1.25;100.00;100427.34;5091264;28;20347;-67
2020/12/09 12:12:23;;;;;;;;;;;;;;;1.23;100.00;100431.03;5074812;28;19928;-67
2020/12/09 12:14:49;;;;;;;;;;;;;;;1.19;100.00;100433.00;5071219;28;19928;-66
2020/12/09 12:17:14;;;;;;;;;;;;;;;1.23;100.00;100439.06;5083378;28;20309;-66
2020/12/09 12:19:40;;;;;;;;;;;;;;;1.20;100.00;100432.03;5071417;28;19935;-67
2020/12/09 12:22:06;;;;;;;;;;;;;;;1.21;100.00;100432.94;5074248;28;19928;-67
2020/12/09 12:24:32;;;;;;;;;;;;;;;1.27;100.00;100424.59;5075715;28;19924;-66
2020/12/09 12:26:58;;;;;;;;;;;;;;;1.31;100.00;100427.06;5085345;28;19924;-65
2020/12/09 12:29:25;;;;;;;;;;;;;;;1.33;100.00;100427.84;5074159;28;19970;-67
2020/12/09 12:31:51;;;;;;;;;;;;;;;1.33;100.00;100427.00;5060184;28;19951;-67
2020/12/09 12:34:16;;;;;;;;;;;;;;;1.34;100.00;100431.41;5090959;28;19935;-67